sensor_id;sensor_type;location;lat;lon;timestamp;P1;durP1;ratioP1;P2;durP2;ratioP2
85133;SDS011;75590;42.690;23.356;2024-02-21T00:00:15;7.45;;;4.03;;
85133;SDS011;75590;42.690;23.356;2024-02-21T00:02:42;7.85;;;4.72;;
85133;SDS011;75590;42.690;23.356;2024-02-21T00:05:07;8.63;;;4.57;;
85133;SDS011;75590;42.690;23.356;2024-02-21T00:07:33;8.68;;;4.45;;
85133;SDS011;75590;42.690;23.356;2024-02-21T00:09:58;10.15;;;4.47;;
85133;SDS011;75590;42.690;23.356;2024-02-21T00:12:24;6.90;;;3.45;;
85133;SDS011;75590;42.690;23.356;2024-02-21T00:14:49;8.38;;;3.65;;
85133;SDS011;75590;42.690;23.356;2024-02-21T00:17:15;8.52;;;4.55;;
85133;SDS011;75590;42.690;23.356;2024-02-21T00:19:40;7.40;;;3.88;;
85133;SDS011;75590;42.690;23.356;2024-02-21T00:22:06;6.72;;;4.38;;
85133;SDS011;75590;42.690;23.356;2024-02-21T00:24:31;7.18;;;4.32;;
85133;SDS011;75590;42.690;23.356;2024-02-21T00:26:57;6.53;;;4.15;;
85133;SDS011;75590;42.690;23.356;2024-02-21T00:29:22;6.40;;;3.97;;
85133;SDS011;75590;42.690;23.356;2024-02-21T00:31:48;9.05;;;4.43;;
85133;SDS011;75590;42.690;23.356;2024-02-21T00:34:14;6.20;;;4.32;;
85133;SDS011;75590;42.690;23.356;2024-02-21T00:36:39;8.57;;;4.13;;
85133;SDS011;75590;42.690;23.356;2024-02-21T00:39:05;6.97;;;3.90;;
85133;SDS011;75590;42.690;23.356;2024-02-21T00:41:31;6.55;;;3.83;;
85133;SDS011;75590;42.690;23.356;2024-02-21T00:43:57;7.55;;;4.20;;
85133;SDS011;75590;42.690;23.356;2024-02-21T00:46:22;6.55;;;4.18;;
85133;SDS011;75590;42.690;23.356;2024-02-21T00:48:48;6.07;;;3.45;;
85133;SDS011;75590;42.690;23.356;2024-02-21T00:51:15;5.43;;;3.28;;
85133;SDS011;75590;42.690;23.356;2024-02-21T00:53:40;7.28;;;3.78;;
85133;SDS011;75590;42.690;23.356;2024-02-21T00:56:07;6.35;;;3.33;;
85133;SDS011;75590;42.690;23.356;2024-02-21T00:58:33;7.03;;;4.35;;
85133;SDS011;75590;42.690;23.356;2024-02-21T01:00:58;5.90;;;3.63;;
85133;SDS011;75590;42.690;23.356;2024-02-21T01:03:25;5.95;;;3.45;;
85133;SDS011;75590;42.690;23.356;2024-02-21T01:05:50;6.20;;;3.75;;
85133;SDS011;75590;42.690;23.356;2024-02-21T01:08:16;6.22;;;3.55;;
85133;SDS011;75590;42.690;23.356;2024-02-21T01:10:42;7.20;;;4.03;;
85133;SDS011;75590;42.690;23.356;2024-02-21T01:13:08;4.68;;;3.60;;
85133;SDS011;75590;42.690;23.356;2024-02-21T01:15:34;4.80;;;3.10;;
85133;SDS011;75590;42.690;23.356;2024-02-21T01:18:00;6.10;;;3.17;;
85133;SDS011;75590;42.690;23.356;2024-02-21T01:20:26;6.07;;;3.50;;
85133;SDS011;75590;42.690;23.356;2024-02-21T01:22:51;6.30;;;4.10;;
85133;SDS011;75590;42.690;23.356;2024-02-21T01:25:17;6.90;;;3.83;;
85133;SDS011;75590;42.690;23.356;2024-02-21T01:27:42;7.80;;;4.32;;
85133;SDS011;75590;42.690;23.356;2024-02-21T01:30:08;8.10;;;4.43;;
85133;SDS011;75590;42.690;23.356;2024-02-21T01:32:35;7.57;;;3.70;;
85133;SDS011;75590;42.690;23.356;2024-02-21T01:35:01;6.43;;;4.15;;
85133;SDS011;75590;42.690;23.356;2024-02-21T01:37:26;7.20;;;4.05;;
85133;SDS011;75590;42.690;23.356;2024-02-21T01:39:52;8.45;;;4.82;;
85133;SDS011;75590;42.690;23.356;2024-02-21T01:42:18;11.02;;;5.70;;
85133;SDS011;75590;42.690;23.356;2024-02-21T01:44:44;14.23;;;7.35;;
85133;SDS011;75590;42.690;23.356;2024-02-21T01:47:10;18.80;;;6.95;;
85133;SDS011;75590;42.690;23.356;2024-02-21T01:49:36;19.25;;;7.20;;
85133;SDS011;75590;42.690;23.356;2024-02-21T01:52:02;23.02;;;8.05;;
85133;SDS011;75590;42.690;23.356;2024-02-21T01:54:28;12.73;;;6.20;;
85133;SDS011;75590;42.690;23.356;2024-02-21T01:56:54;13.85;;;7.13;;
85133;SDS011;75590;42.690;23.356;2024-02-21T01:59:19;7.63;;;4.55;;
85133;SDS011;75590;42.690;23.356;2024-02-21T02:01:46;11.95;;;5.65;;
85133;SDS011;75590;42.690;23.356;2024-02-21T02:04:14;9.00;;;4.63;;
85133;SDS011;75590;42.690;23.356;2024-02-21T02:06:40;9.02;;;5.57;;
85133;SDS011;75590;42.690;23.356;2024-02-21T02:09:06;6.30;;;3.95;;
85133;SDS011;75590;42.690;23.356;2024-02-21T02:11:32;8.02;;;4.45;;
85133;SDS011;75590;42.690;23.356;2024-02-21T02:13:58;6.75;;;4.80;;
85133;SDS011;75590;42.690;23.356;2024-02-21T02:16:23;8.45;;;4.45;;
85133;SDS011;75590;42.690;23.356;2024-02-21T02:18:49;9.95;;;4.85;;
85133;SDS011;75590;42.690;23.356;2024-02-21T02:21:30;7.88;;;4.72;;
85133;SDS011;75590;42.690;23.356;2024-02-21T02:23:58;8.57;;;4.60;;
85133;SDS011;75590;42.690;23.356;2024-02-21T02:26:24;8.65;;;4.70;;
85133;SDS011;75590;42.690;23.356;2024-02-21T02:28:49;8.07;;;5.53;;
85133;SDS011;75590;42.690;23.356;2024-02-21T02:31:15;10.85;;;4.82;;
85133;SDS011;75590;42.690;23.356;2024-02-21T02:33:42;8.98;;;4.63;;
85133;SDS011;75590;42.690;23.356;2024-02-21T02:38:35;8.88;;;4.95;;
85133;SDS011;75590;42.690;23.356;2024-02-21T02:41:02;10.80;;;5.13;;
85133;SDS011;75590;42.690;23.356;2024-02-21T02:43:27;10.70;;;5.68;;
85133;SDS011;75590;42.690;23.356;2024-02-21T02:45:53;9.85;;;4.88;;
85133;SDS011;75590;42.690;23.356;2024-02-21T02:48:18;10.73;;;5.78;;
85133;SDS011;75590;42.690;23.356;2024-02-21T02:50:45;10.75;;;5.53;;
85133;SDS011;75590;42.690;23.356;2024-02-21T02:53:11;11.15;;;6.22;;
85133;SDS011;75590;42.690;23.356;2024-02-21T02:55:36;10.70;;;5.80;;
85133;SDS011;75590;42.690;23.356;2024-02-21T02:58:02;9.23;;;5.10;;
85133;SDS011;75590;42.690;23.356;2024-02-21T03:00:27;11.00;;;5.43;;
85133;SDS011;75590;42.690;23.356;2024-02-21T03:02:53;10.85;;;4.72;;
85133;SDS011;75590;42.690;23.356;2024-02-21T03:05:19;10.27;;;5.78;;
85133;SDS011;75590;42.690;23.356;2024-02-21T03:07:46;10.02;;;5.63;;
85133;SDS011;75590;42.690;23.356;2024-02-21T03:10:12;11.60;;;5.78;;
85133;SDS011;75590;42.690;23.356;2024-02-21T03:12:38;11.63;;;6.00;;
85133;SDS011;75590;42.690;23.356;2024-02-21T03:15:04;9.88;;;5.68;;
85133;SDS011;75590;42.690;23.356;2024-02-21T03:17:30;11.68;;;6.20;;
85133;SDS011;75590;42.690;23.356;2024-02-21T03:19:57;11.95;;;6.32;;
85133;SDS011;75590;42.690;23.356;2024-02-21T03:22:23;14.10;;;6.97;;
85133;SDS011;75590;42.690;23.356;2024-02-21T03:24:49;12.40;;;6.57;;
85133;SDS011;75590;42.690;23.356;2024-02-21T03:27:14;12.02;;;6.25;;
85133;SDS011;75590;42.690;23.356;2024-02-21T03:29:40;13.65;;;7.20;;
85133;SDS011;75590;42.690;23.356;2024-02-21T03:32:05;11.70;;;6.53;;
85133;SDS011;75590;42.690;23.356;2024-02-21T03:34:31;13.85;;;7.47;;
85133;SDS011;75590;42.690;23.356;2024-02-21T03:36:56;11.63;;;6.88;;
85133;SDS011;75590;42.690;23.356;2024-02-21T03:39:22;15.25;;;8.10;;
85133;SDS011;75590;42.690;23.356;2024-02-21T03:41:48;12.82;;;7.03;;
85133;SDS011;75590;42.690;23.356;2024-02-21T03:44:13;12.13;;;6.72;;
85133;SDS011;75590;42.690;23.356;2024-02-21T03:46:38;14.43;;;7.40;;
85133;SDS011;75590;42.690;23.356;2024-02-21T03:49:04;13.15;;;7.15;;
85133;SDS011;75590;42.690;23.356;2024-02-21T03:51:29;12.85;;;6.85;;
85133;SDS011;75590;42.690;23.356;2024-02-21T03:53:55;13.23;;;6.68;;
85133;SDS011;75590;42.690;23.356;2024-02-21T03:56:20;14.95;;;6.75;;
85133;SDS011;75590;42.690;23.356;2024-02-21T03:58:46;15.38;;;7.78;;
85133;SDS011;75590;42.690;23.356;2024-02-21T04:01:11;14.98;;;7.53;;
85133;SDS011;75590;42.690;23.356;2024-02-21T04:03:37;13.52;;;7.72;;
85133;SDS011;75590;42.690;23.356;2024-02-21T04:06:03;14.23;;;8.80;;
85133;SDS011;75590;42.690;23.356;2024-02-21T04:08:28;16.63;;;8.35;;
85133;SDS011;75590;42.690;23.356;2024-02-21T04:10:54;14.30;;;6.70;;
85133;SDS011;75590;42.690;23.356;2024-02-21T04:13:19;14.75;;;7.00;;
85133;SDS011;75590;42.690;23.356;2024-02-21T04:15:45;14.20;;;7.03;;
85133;SDS011;75590;42.690;23.356;2024-02-21T04:18:10;12.40;;;5.85;;
85133;SDS011;75590;42.690;23.356;2024-02-21T04:20:36;11.65;;;6.45;;
85133;SDS011;75590;42.690;23.356;2024-02-21T04:23:01;14.70;;;6.60;;
85133;SDS011;75590;42.690;23.356;2024-02-21T04:25:27;10.63;;;6.25;;
85133;SDS011;75590;42.690;23.356;2024-02-21T04:27:52;15.13;;;7.43;;
85133;SDS011;75590;42.690;23.356;2024-02-21T04:30:18;13.75;;;6.78;;
85133;SDS011;75590;42.690;23.356;2024-02-21T04:32:45;14.95;;;6.95;;
85133;SDS011;75590;42.690;23.356;2024-02-21T04:35:10;12.90;;;6.82;;
85133;SDS011;75590;42.690;23.356;2024-02-21T04:37:35;13.38;;;6.75;;
85133;SDS011;75590;42.690;23.356;2024-02-21T04:40:01;13.68;;;6.82;;
85133;SDS011;75590;42.690;23.356;2024-02-21T04:42:27;15.13;;;8.13;;
85133;SDS011;75590;42.690;23.356;2024-02-21T04:44:52;13.15;;;7.80;;
85133;SDS011;75590;42.690;23.356;2024-02-21T04:47:18;14.80;;;6.88;;
85133;SDS011;75590;42.690;23.356;2024-02-21T04:49:45;14.38;;;7.50;;
85133;SDS011;75590;42.690;23.356;2024-02-21T04:52:12;14.05;;;7.18;;
85133;SDS011;75590;42.690;23.356;2024-02-21T04:54:38;14.30;;;6.93;;
85133;SDS011;75590;42.690;23.356;2024-02-21T04:57:03;15.88;;;7.90;;
85133;SDS011;75590;42.690;23.356;2024-02-21T04:59:29;15.02;;;7.53;;
85133;SDS011;75590;42.690;23.356;2024-02-21T05:01:54;12.85;;;6.57;;
85133;SDS011;75590;42.690;23.356;2024-02-21T05:04:20;16.38;;;7.60;;
85133;SDS011;75590;42.690;23.356;2024-02-21T05:06:46;18.05;;;8.30;;
85133;SDS011;75590;42.690;23.356;2024-02-21T05:09:11;12.02;;;7.50;;
85133;SDS011;75590;42.690;23.356;2024-02-21T05:11:37;14.82;;;7.22;;
85133;SDS011;75590;42.690;23.356;2024-02-21T05:16:31;17.65;;;7.95;;
85133;SDS011;75590;42.690;23.356;2024-02-21T05:18:56;13.40;;;7.15;;
85133;SDS011;75590;42.690;23.356;2024-02-21T05:21:25;15.15;;;7.68;;
85133;SDS011;75590;42.690;23.356;2024-02-21T05:23:50;14.98;;;8.52;;
85133;SDS011;75590;42.690;23.356;2024-02-21T05:26:20;16.88;;;7.82;;
85133;SDS011;75590;42.690;23.356;2024-02-21T05:28:48;17.27;;;7.95;;
85133;SDS011;75590;42.690;23.356;2024-02-21T05:31:20;18.80;;;8.77;;
85133;SDS011;75590;42.690;23.356;2024-02-21T05:33:48;17.08;;;7.70;;
85133;SDS011;75590;42.690;23.356;2024-02-21T05:36:14;16.73;;;8.40;;
85133;SDS011;75590;42.690;23.356;2024-02-21T05:38:39;16.02;;;8.93;;
85133;SDS011;75590;42.690;23.356;2024-02-21T05:41:05;16.15;;;9.02;;
85133;SDS011;75590;42.690;23.356;2024-02-21T05:43:32;19.85;;;9.63;;
85133;SDS011;75590;42.690;23.356;2024-02-21T05:45:57;14.25;;;7.80;;
85133;SDS011;75590;42.690;23.356;2024-02-21T05:48:23;15.82;;;8.55;;
85133;SDS011;75590;42.690;23.356;2024-02-21T05:50:49;18.40;;;8.57;;
85133;SDS011;75590;42.690;23.356;2024-02-21T05:53:14;19.83;;;9.38;;
85133;SDS011;75590;42.690;23.356;2024-02-21T05:55:40;21.58;;;9.35;;
85133;SDS011;75590;42.690;23.356;2024-02-21T05:58:05;18.88;;;8.93;;
85133;SDS011;75590;42.690;23.356;2024-02-21T06:00:31;17.48;;;8.48;;
85133;SDS011;75590;42.690;23.356;2024-02-21T06:02:57;16.10;;;7.63;;
85133;SDS011;75590;42.690;23.356;2024-02-21T06:05:23;17.08;;;8.90;;
85133;SDS011;75590;42.690;23.356;2024-02-21T06:07:48;17.45;;;8.57;;
85133;SDS011;75590;42.690;23.356;2024-02-21T06:10:14;31.58;;;19.33;;
85133;SDS011;75590;42.690;23.356;2024-02-21T06:12:39;22.02;;;13.23;;
85133;SDS011;75590;42.690;23.356;2024-02-21T06:15:05;15.57;;;8.95;;
85133;SDS011;75590;42.690;23.356;2024-02-21T06:17:31;21.45;;;10.20;;
85133;SDS011;75590;42.690;23.356;2024-02-21T06:19:57;13.55;;;8.70;;
85133;SDS011;75590;42.690;23.356;2024-02-21T06:22:22;17.35;;;8.93;;
85133;SDS011;75590;42.690;23.356;2024-02-21T06:24:48;16.17;;;7.70;;
85133;SDS011;75590;42.690;23.356;2024-02-21T06:27:13;14.77;;;8.63;;
85133;SDS011;75590;42.690;23.356;2024-02-21T06:29:41;17.10;;;9.32;;
85133;SDS011;75590;42.690;23.356;2024-02-21T06:32:06;15.80;;;8.80;;
85133;SDS011;75590;42.690;23.356;2024-02-21T06:34:32;18.60;;;11.23;;
85133;SDS011;75590;42.690;23.356;2024-02-21T06:36:57;18.90;;;10.88;;
85133;SDS011;75590;42.690;23.356;2024-02-21T06:39:23;18.50;;;10.73;;
85133;SDS011;75590;42.690;23.356;2024-02-21T06:41:48;18.15;;;10.02;;
85133;SDS011;75590;42.690;23.356;2024-02-21T06:44:16;16.50;;;9.60;;
85133;SDS011;75590;42.690;23.356;2024-02-21T06:46:41;21.38;;;13.43;;
85133;SDS011;75590;42.690;23.356;2024-02-21T06:49:07;15.68;;;9.40;;
85133;SDS011;75590;42.690;23.356;2024-02-21T06:51:32;16.58;;;9.45;;
85133;SDS011;75590;42.690;23.356;2024-02-21T06:53:59;24.20;;;10.70;;
85133;SDS011;75590;42.690;23.356;2024-02-21T06:56:25;17.73;;;10.05;;
85133;SDS011;75590;42.690;23.356;2024-02-21T06:58:56;19.30;;;11.32;;
85133;SDS011;75590;42.690;23.356;2024-02-21T07:01:22;19.08;;;11.40;;
85133;SDS011;75590;42.690;23.356;2024-02-21T07:03:47;20.95;;;10.48;;
85133;SDS011;75590;42.690;23.356;2024-02-21T07:06:13;18.98;;;10.43;;
85133;SDS011;75590;42.690;23.356;2024-02-21T07:08:38;22.35;;;13.30;;
85133;SDS011;75590;42.690;23.356;2024-02-21T07:11:04;27.63;;;16.05;;
85133;SDS011;75590;42.690;23.356;2024-02-21T07:13:30;17.48;;;9.80;;
85133;SDS011;75590;42.690;23.356;2024-02-21T07:15:55;21.52;;;10.90;;
85133;SDS011;75590;42.690;23.356;2024-02-21T07:18:21;27.60;;;14.57;;
85133;SDS011;75590;42.690;23.356;2024-02-21T07:20:47;19.83;;;11.45;;
85133;SDS011;75590;42.690;23.356;2024-02-21T07:23:12;18.55;;;10.50;;
85133;SDS011;75590;42.690;23.356;2024-02-21T07:25:40;17.35;;;9.88;;
85133;SDS011;75590;42.690;23.356;2024-02-21T07:28:06;17.17;;;9.95;;
85133;SDS011;75590;42.690;23.356;2024-02-21T07:30:32;16.67;;;9.02;;
85133;SDS011;75590;42.690;23.356;2024-02-21T07:32:57;19.13;;;11.00;;
85133;SDS011;75590;42.690;23.356;2024-02-21T07:35:23;18.95;;;9.70;;
85133;SDS011;75590;42.690;23.356;2024-02-21T07:37:49;19.02;;;9.48;;
85133;SDS011;75590;42.690;23.356;2024-02-21T07:40:15;16.02;;;9.73;;
85133;SDS011;75590;42.690;23.356;2024-02-21T07:42:41;17.42;;;8.75;;
85133;SDS011;75590;42.690;23.356;2024-02-21T07:45:07;20.13;;;9.77;;
85133;SDS011;75590;42.690;23.356;2024-02-21T07:47:34;17.58;;;8.48;;
85133;SDS011;75590;42.690;23.356;2024-02-21T07:50:00;16.60;;;9.50;;
85133;SDS011;75590;42.690;23.356;2024-02-21T07:52:27;18.27;;;9.23;;
85133;SDS011;75590;42.690;23.356;2024-02-21T07:54:52;17.23;;;9.23;;
85133;SDS011;75590;42.690;23.356;2024-02-21T07:57:18;19.45;;;9.15;;
85133;SDS011;75590;42.690;23.356;2024-02-21T07:59:44;18.33;;;10.93;;
85133;SDS011;75590;42.690;23.356;2024-02-21T08:02:09;17.10;;;9.43;;
85133;SDS011;75590;42.690;23.356;2024-02-21T08:04:35;18.83;;;9.18;;
85133;SDS011;75590;42.690;23.356;2024-02-21T08:07:01;16.20;;;8.63;;
85133;SDS011;75590;42.690;23.356;2024-02-21T08:09:29;15.45;;;8.57;;
85133;SDS011;75590;42.690;23.356;2024-02-21T08:11:54;15.55;;;9.07;;
85133;SDS011;75590;42.690;23.356;2024-02-21T08:14:20;16.08;;;9.20;;
85133;SDS011;75590;42.690;23.356;2024-02-21T08:16:46;15.77;;;7.95;;
85133;SDS011;75590;42.690;23.356;2024-02-21T08:19:12;16.10;;;8.20;;
85133;SDS011;75590;42.690;23.356;2024-02-21T08:21:37;13.40;;;7.80;;
85133;SDS011;75590;42.690;23.356;2024-02-21T08:24:05;15.85;;;8.82;;
85133;SDS011;75590;42.690;23.356;2024-02-21T08:26:30;17.85;;;8.80;;
85133;SDS011;75590;42.690;23.356;2024-02-21T08:28:56;15.18;;;8.18;;
85133;SDS011;75590;42.690;23.356;2024-02-21T08:31:26;15.93;;;9.10;;
85133;SDS011;75590;42.690;23.356;2024-02-21T08:34:02;14.80;;;8.60;;
85133;SDS011;75590;42.690;23.356;2024-02-21T08:36:32;13.70;;;8.23;;
85133;SDS011;75590;42.690;23.356;2024-02-21T08:38:58;16.50;;;9.05;;
85133;SDS011;75590;42.690;23.356;2024-02-21T08:41:24;15.77;;;8.57;;
85133;SDS011;75590;42.690;23.356;2024-02-21T08:43:53;15.93;;;9.55;;
85133;SDS011;75590;42.690;23.356;2024-02-21T08:46:19;16.55;;;9.30;;
85133;SDS011;75590;42.690;23.356;2024-02-21T08:48:49;17.00;;;9.48;;
85133;SDS011;75590;42.690;23.356;2024-02-21T08:51:17;20.13;;;11.45;;
85133;SDS011;75590;42.690;23.356;2024-02-21T08:53:46;16.08;;;10.48;;
85133;SDS011;75590;42.690;23.356;2024-02-21T08:56:12;13.27;;;8.23;;
85133;SDS011;75590;42.690;23.356;2024-02-21T08:58:39;16.17;;;8.70;;
85133;SDS011;75590;42.690;23.356;2024-02-21T09:01:05;12.63;;;7.82;;
85133;SDS011;75590;42.690;23.356;2024-02-21T09:03:34;16.33;;;9.25;;
85133;SDS011;75590;42.690;23.356;2024-02-21T09:06:00;13.65;;;8.25;;
85133;SDS011;75590;42.690;23.356;2024-02-21T09:08:28;13.63;;;8.15;;
85133;SDS011;75590;42.690;23.356;2024-02-21T09:10:53;12.70;;;7.97;;
85133;SDS011;75590;42.690;23.356;2024-02-21T09:13:19;12.38;;;7.07;;
85133;SDS011;75590;42.690;23.356;2024-02-21T09:15:44;12.02;;;7.28;;
85133;SDS011;75590;42.690;23.356;2024-02-21T09:18:10;12.57;;;8.27;;
85133;SDS011;75590;42.690;23.356;2024-02-21T09:20:35;11.40;;;7.07;;
85133;SDS011;75590;42.690;23.356;2024-02-21T09:23:02;15.85;;;8.10;;
85133;SDS011;75590;42.690;23.356;2024-02-21T09:25:28;13.90;;;7.95;;
85133;SDS011;75590;42.690;23.356;2024-02-21T09:27:54;13.88;;;8.43;;
85133;SDS011;75590;42.690;23.356;2024-02-21T09:30:20;18.52;;;9.45;;
85133;SDS011;75590;42.690;23.356;2024-02-21T09:32:45;12.88;;;7.82;;
85133;SDS011;75590;42.690;23.356;2024-02-21T09:35:11;16.15;;;7.68;;
85133;SDS011;75590;42.690;23.356;2024-02-21T09:37:37;14.02;;;7.95;;
85133;SDS011;75590;42.690;23.356;2024-02-21T09:40:04;12.35;;;7.15;;
85133;SDS011;75590;42.690;23.356;2024-02-21T09:42:35;13.50;;;8.23;;
85133;SDS011;75590;42.690;23.356;2024-02-21T09:45:04;14.25;;;7.82;;
85133;SDS011;75590;42.690;23.356;2024-02-21T09:47:34;12.65;;;8.25;;
85133;SDS011;75590;42.690;23.356;2024-02-21T09:50:08;13.57;;;8.48;;
85133;SDS011;75590;42.690;23.356;2024-02-21T09:52:34;12.13;;;7.70;;
85133;SDS011;75590;42.690;23.356;2024-02-21T09:55:01;19.25;;;9.32;;
85133;SDS011;75590;42.690;23.356;2024-02-21T09:57:27;13.80;;;8.02;;
85133;SDS011;75590;42.690;23.356;2024-02-21T09:59:53;12.32;;;7.53;;
85133;SDS011;75590;42.690;23.356;2024-02-21T10:02:22;12.75;;;7.97;;
85133;SDS011;75590;42.690;23.356;2024-02-21T10:04:47;13.25;;;7.90;;
85133;SDS011;75590;42.690;23.356;2024-02-21T10:07:13;11.68;;;7.72;;
85133;SDS011;75590;42.690;23.356;2024-02-21T10:09:38;14.88;;;6.85;;
85133;SDS011;75590;42.690;23.356;2024-02-21T10:12:09;11.75;;;7.22;;
85133;SDS011;75590;42.690;23.356;2024-02-21T10:14:35;9.80;;;6.82;;
85133;SDS011;75590;42.690;23.356;2024-02-21T10:17:01;13.63;;;6.68;;
85133;SDS011;75590;42.690;23.356;2024-02-21T10:19:27;9.98;;;6.35;;
85133;SDS011;75590;42.690;23.356;2024-02-21T10:24:27;16.60;;;7.60;;
85133;SDS011;75590;42.690;23.356;2024-02-21T10:27:01;15.40;;;9.50;;
85133;SDS011;75590;42.690;23.356;2024-02-21T10:29:28;10.98;;;6.32;;
85133;SDS011;75590;42.690;23.356;2024-02-21T10:32:04;15.02;;;7.40;;
85133;SDS011;75590;42.690;23.356;2024-02-21T10:34:32;10.23;;;6.13;;
85133;SDS011;75590;42.690;23.356;2024-02-21T10:37:05;11.57;;;6.78;;
85133;SDS011;75590;42.690;23.356;2024-02-21T10:39:32;11.63;;;7.40;;
85133;SDS011;75590;42.690;23.356;2024-02-21T10:42:02;9.13;;;6.38;;
85133;SDS011;75590;42.690;23.356;2024-02-21T10:44:35;11.50;;;6.63;;
85133;SDS011;75590;42.690;23.356;2024-02-21T10:47:10;9.27;;;5.25;;
85133;SDS011;75590;42.690;23.356;2024-02-21T10:49:38;8.80;;;5.63;;
85133;SDS011;75590;42.690;23.356;2024-02-21T10:54:47;10.88;;;6.07;;
85133;SDS011;75590;42.690;23.356;2024-02-21T10:57:18;10.35;;;6.38;;
85133;SDS011;75590;42.690;23.356;2024-02-21T10:59:44;10.43;;;6.45;;
85133;SDS011;75590;42.690;23.356;2024-02-21T11:02:10;9.02;;;5.55;;
85133;SDS011;75590;42.690;23.356;2024-02-21T11:04:35;8.45;;;6.05;;
85133;SDS011;75590;42.690;23.356;2024-02-21T11:07:02;8.40;;;5.72;;
85133;SDS011;75590;42.690;23.356;2024-02-21T11:09:30;10.20;;;6.00;;
85133;SDS011;75590;42.690;23.356;2024-02-21T11:12:02;8.73;;;6.20;;
85133;SDS011;75590;42.690;23.356;2024-02-21T11:14:29;8.23;;;4.82;;
85133;SDS011;75590;42.690;23.356;2024-02-21T11:16:57;6.63;;;3.97;;
85133;SDS011;75590;42.690;23.356;2024-02-21T11:21:49;4.32;;;3.80;;
85133;SDS011;75590;42.690;23.356;2024-02-21T11:27:07;5.53;;;3.45;;
85133;SDS011;75590;42.690;23.356;2024-02-21T11:29:39;5.45;;;3.70;;
85133;SDS011;75590;42.690;23.356;2024-02-21T11:32:08;4.85;;;3.35;;
85133;SDS011;75590;42.690;23.356;2024-02-21T11:34:35;4.43;;;2.95;;
85133;SDS011;75590;42.690;23.356;2024-02-21T11:37:02;4.07;;;2.90;;
85133;SDS011;75590;42.690;23.356;2024-02-21T11:39:38;7.05;;;4.15;;
85133;SDS011;75590;42.690;23.356;2024-02-21T11:42:05;3.65;;;3.17;;
85133;SDS011;75590;42.690;23.356;2024-02-21T11:44:33;6.25;;;3.65;;
85133;SDS011;75590;42.690;23.356;2024-02-21T11:47:00;6.28;;;3.75;;
85133;SDS011;75590;42.690;23.356;2024-02-21T11:49:26;5.72;;;3.38;;
85133;SDS011;75590;42.690;23.356;2024-02-21T11:51:59;4.78;;;3.40;;
85133;SDS011;75590;42.690;23.356;2024-02-21T11:54:26;5.00;;;3.40;;
85133;SDS011;75590;42.690;23.356;2024-02-21T11:56:52;4.55;;;3.58;;
85133;SDS011;75590;42.690;23.356;2024-02-21T11:59:18;8.02;;;4.35;;
85133;SDS011;75590;42.690;23.356;2024-02-21T12:01:44;4.57;;;3.35;;
85133;SDS011;75590;42.690;23.356;2024-02-21T12:04:09;5.28;;;3.45;;
85133;SDS011;75590;42.690;23.356;2024-02-21T12:06:35;5.45;;;3.65;;
85133;SDS011;75590;42.690;23.356;2024-02-21T12:09:01;5.72;;;3.30;;
85133;SDS011;75590;42.690;23.356;2024-02-21T12:11:26;7.03;;;3.75;;
85133;SDS011;75590;42.690;23.356;2024-02-21T12:14:01;6.45;;;3.95;;
85133;SDS011;75590;42.690;23.356;2024-02-21T12:16:29;6.35;;;4.28;;
85133;SDS011;75590;42.690;23.356;2024-02-21T12:18:55;6.93;;;4.40;;
85133;SDS011;75590;42.690;23.356;2024-02-21T12:21:29;9.20;;;5.63;;
85133;SDS011;75590;42.690;23.356;2024-02-21T12:23:55;8.23;;;4.80;;
85133;SDS011;75590;42.690;23.356;2024-02-21T12:26:21;6.22;;;4.00;;
85133;SDS011;75590;42.690;23.356;2024-02-21T12:28:47;8.45;;;6.50;;
85133;SDS011;75590;42.690;23.356;2024-02-21T12:31:13;7.80;;;3.85;;
85133;SDS011;75590;42.690;23.356;2024-02-21T12:33:39;6.50;;;3.92;;
85133;SDS011;75590;42.690;23.356;2024-02-21T12:36:05;7.68;;;4.78;;
85133;SDS011;75590;42.690;23.356;2024-02-21T12:38:30;7.53;;;5.00;;
85133;SDS011;75590;42.690;23.356;2024-02-21T12:40:56;5.15;;;3.78;;
85133;SDS011;75590;42.690;23.356;2024-02-21T12:43:25;5.30;;;3.63;;
85133;SDS011;75590;42.690;23.356;2024-02-21T12:45:51;7.03;;;4.13;;
85133;SDS011;75590;42.690;23.356;2024-02-21T12:48:16;6.15;;;3.67;;
85133;SDS011;75590;42.690;23.356;2024-02-21T12:50:48;7.20;;;4.35;;
85133;SDS011;75590;42.690;23.356;2024-02-21T12:53:18;8.27;;;4.88;;
85133;SDS011;75590;42.690;23.356;2024-02-21T12:55:46;8.18;;;4.88;;
85133;SDS011;75590;42.690;23.356;2024-02-21T12:58:13;9.00;;;5.75;;
85133;SDS011;75590;42.690;23.356;2024-02-21T13:00:39;13.93;;;8.63;;
85133;SDS011;75590;42.690;23.356;2024-02-21T13:03:05;9.00;;;5.70;;
85133;SDS011;75590;42.690;23.356;2024-02-21T13:05:30;13.77;;;8.23;;
85133;SDS011;75590;42.690;23.356;2024-02-21T13:07:57;8.60;;;5.28;;
85133;SDS011;75590;42.690;23.356;2024-02-21T13:10:23;8.75;;;5.20;;
85133;SDS011;75590;42.690;23.356;2024-02-21T13:12:49;8.68;;;5.50;;
85133;SDS011;75590;42.690;23.356;2024-02-21T13:15:14;9.88;;;6.15;;
85133;SDS011;75590;42.690;23.356;2024-02-21T13:17:41;8.88;;;5.47;;
85133;SDS011;75590;42.690;23.356;2024-02-21T13:20:07;8.65;;;5.53;;
85133;SDS011;75590;42.690;23.356;2024-02-21T13:22:33;10.35;;;6.95;;
85133;SDS011;75590;42.690;23.356;2024-02-21T13:24:59;11.48;;;7.38;;
85133;SDS011;75590;42.690;23.356;2024-02-21T13:27:28;11.73;;;6.53;;
85133;SDS011;75590;42.690;23.356;2024-02-21T13:29:53;9.60;;;5.75;;
85133;SDS011;75590;42.690;23.356;2024-02-21T13:32:19;9.90;;;5.70;;
85133;SDS011;75590;42.690;23.356;2024-02-21T13:34:44;9.02;;;5.45;;
85133;SDS011;75590;42.690;23.356;2024-02-21T13:37:10;7.07;;;4.68;;
85133;SDS011;75590;42.690;23.356;2024-02-21T13:39:36;6.63;;;4.50;;
85133;SDS011;75590;42.690;23.356;2024-02-21T13:42:02;6.75;;;4.45;;
85133;SDS011;75590;42.690;23.356;2024-02-21T13:44:31;7.55;;;4.53;;
85133;SDS011;75590;42.690;23.356;2024-02-21T13:46:57;5.55;;;4.00;;
85133;SDS011;75590;42.690;23.356;2024-02-21T13:49:23;7.60;;;4.82;;
85133;SDS011;75590;42.690;23.356;2024-02-21T13:51:48;8.48;;;4.88;;
85133;SDS011;75590;42.690;23.356;2024-02-21T13:54:14;9.63;;;4.88;;
85133;SDS011;75590;42.690;23.356;2024-02-21T13:56:44;7.63;;;4.57;;
85133;SDS011;75590;42.690;23.356;2024-02-21T13:59:11;8.20;;;5.05;;
85133;SDS011;75590;42.690;23.356;2024-02-21T14:01:38;10.55;;;5.00;;
85133;SDS011;75590;42.690;23.356;2024-02-21T14:04:05;8.25;;;5.15;;
85133;SDS011;75590;42.690;23.356;2024-02-21T14:06:30;11.77;;;5.13;;
85133;SDS011;75590;42.690;23.356;2024-02-21T14:08:56;11.25;;;6.47;;
85133;SDS011;75590;42.690;23.356;2024-02-21T14:11:21;8.20;;;5.38;;
85133;SDS011;75590;42.690;23.356;2024-02-21T14:13:48;8.60;;;5.47;;
85133;SDS011;75590;42.690;23.356;2024-02-21T14:16:13;8.75;;;4.80;;
85133;SDS011;75590;42.690;23.356;2024-02-21T14:18:39;9.15;;;5.20;;
85133;SDS011;75590;42.690;23.356;2024-02-21T14:21:09;8.10;;;4.82;;
85133;SDS011;75590;42.690;23.356;2024-02-21T14:23:38;6.97;;;3.95;;
85133;SDS011;75590;42.690;23.356;2024-02-21T14:26:04;7.03;;;3.85;;
85133;SDS011;75590;42.690;23.356;2024-02-21T14:28:31;7.72;;;4.68;;
85133;SDS011;75590;42.690;23.356;2024-02-21T14:30:59;6.75;;;4.20;;
85133;SDS011;75590;42.690;23.356;2024-02-21T14:33:26;7.68;;;4.75;;
85133;SDS011;75590;42.690;23.356;2024-02-21T14:35:52;8.00;;;4.78;;